Time;durP1;ratioP1;P1;durP2;ratioP2;P2;SDS_P1;SDS_P2;PMS_P1;PMS_P2;Temp;Humidity;BMP_temperature;BMP_pressure;BME280_temperature;BME280_humidity;BME280_pressure;Samples;Min_cycle;Max_cycle;Signal;HPM_P1;HPM_P2
2021/11/27 00:00:37;;;;;;;10.27;5.38;;;;;;;13.01;70.07;99757.75;4837261;29;102072;-90
2021/11/27 00:03:04;;;;;;;8.55;4.53;;;;;;;13.01;70.07;99766.75;4831706;29;102899;-90
2021/11/27 00:05:34;;;;;;;9.52;5.00;;;;;;;13.01;70.29;99755.81;4836396;29;101957;-88
2021/11/27 00:08:03;;;;;;;8.60;4.65;;;;;;;13.01;70.12;99749.56;4827153;29;101758;-90
2021/11/27 00:10:32;;;;;;;11.23;5.18;;;;;;;13.01;70.27;99744.88;4829835;29;102069;-89
2021/11/27 00:13:00;;;;;;;9.02;5.10;;;;;;;13.01;70.04;99744.88;4827613;29;102723;-89
2021/11/27 00:15:28;;;;;;;13.25;5.47;;;;;;;13.02;70.21;99746.53;4828370;29;101544;-89
2021/11/27 00:17:57;;;;;;;10.33;5.17;;;;;;;13.01;70.31;99739.44;4827809;29;101997;-89
2021/11/27 00:20:27;;;;;;;7.20;4.88;;;;;;;13.02;70.14;99740.22;4828446;29;102228;-88
2021/11/27 00:22:54;;;;;;;9.00;4.72;;;;;;;13.02;70.22;99734.78;4824805;29;102718;-89
2021/11/27 00:25:20;;;;;;;8.02;4.47;;;;;;;13.02;70.40;99735.59;4843745;29;101862;-88
2021/11/27 00:27:49;;;;;;;7.82;5.10;;;;;;;13.01;70.20;99736.69;4849475;29;101859;-88
2021/11/27 00:30:19;;;;;;;9.53;4.93;;;;;;;13.01;70.16;99728.50;4832954;29;102138;-89
2021/11/27 00:32:45;;;;;;;11.52;5.20;;;;;;;13.02;70.33;99729.31;4858789;29;102744;-94
2021/11/27 00:35:12;;;;;;;9.13;5.00;;;;;;;13.01;70.19;99731.22;4866241;29;101884;-94
2021/11/27 00:37:39;;;;;;;7.60;4.93;;;;;;;13.02;70.21;99730.13;4848704;29;101946;-88
2021/11/27 00:40:09;;;;;;;11.70;5.15;;;;;;;13.02;70.33;99723.84;4847938;29;102068;-90
2021/11/27 00:42:36;;;;;;;9.20;5.05;;;;;;;13.02;70.24;99721.94;4831064;29;102410;-90
2021/11/27 00:45:10;;;;;;;9.40;5.00;;;;;;;13.02;70.42;99724.69;4816130;29;102108;-90
2021/11/27 00:47:39;;;;;;;9.02;5.00;;;;;;;13.03;70.35;99714.56;4813962;29;101937;-90
2021/11/27 00:50:06;;;;;;;9.55;5.18;;;;;;;13.04;70.34;99710.69;4833170;29;102084;-91
2021/11/27 00:52:33;;;;;;;10.00;5.22;;;;;;;13.03;70.36;99704.44;4814689;29;102442;-90
2021/11/27 00:55:00;;;;;;;7.40;4.40;;;;;;;13.04;70.40;99697.84;4818607;29;101960;-89
2021/11/27 00:57:27;;;;;;;11.32;5.10;;;;;;;13.03;70.17;99688.03;4824512;29;101817;-90
2021/11/27 00:59:53;;;;;;;9.60;4.78;;;;;;;13.04;70.39;99688.84;4826466;29;102127;-90
2021/11/27 01:02:21;;;;;;;9.70;4.82;;;;;;;13.04;70.73;99695.09;4848921;29;102446;-90
2021/11/27 01:04:48;;;;;;;10.50;4.80;;;;;;;13.04;70.37;99691.56;4841867;29;102003;-90
2021/11/27 01:07:14;;;;;;;8.88;5.25;;;;;;;13.04;70.53;99686.91;4835417;29;102043;-90
2021/11/27 01:09:41;;;;;;;11.40;5.45;;;;;;;13.03;70.48;99679.84;4831562;29;102060;-90
2021/11/27 01:12:08;;;;;;;9.45;5.25;;;;;;;13.04;70.48;99677.91;4839560;29;103032;-90
2021/11/27 01:14:36;;;;;;;10.70;5.70;;;;;;;13.04;70.50;99667.78;4833496;29;101706;-91
2021/11/27 01:17:07;;;;;;;11.02;5.88;;;;;;;13.04;70.53;99667.78;4850320;29;101549;-90
2021/11/27 01:19:39;;;;;;;9.40;5.15;;;;;;;13.04;70.66;99667.78;4833386;29;101898;-91
2021/11/27 01:22:09;;;;;;;10.40;5.43;;;;;;;13.04;70.50;99667.78;4837354;29;101883;-90
2021/11/27 01:24:36;;;;;;;10.80;5.07;;;;;;;13.05;70.50;99660.41;4830632;29;101840;-91
2021/11/27 01:27:03;;;;;;;8.93;5.05;;;;;;;13.05;70.46;99658.47;4820068;29;102160;-91
2021/11/27 01:29:31;;;;;;;7.55;4.97;;;;;;;13.06;70.56;99657.38;4833128;29;102079;-91
2021/11/27 01:31:58;;;;;;;10.00;5.53;;;;;;;13.05;70.53;99652.22;4830839;29;102764;-91
2021/11/27 01:34:25;;;;;;;9.18;5.07;;;;;;;13.05;70.58;99653.00;4843328;29;102091;-91
2021/11/27 01:36:53;;;;;;;10.25;5.70;;;;;;;13.05;70.37;99649.47;4849940;29;102017;-91
2021/11/27 01:39:20;;;;;;;12.20;5.47;;;;;;;13.05;70.72;99647.53;4823343;29;102093;-88
2021/11/27 01:41:47;;;;;;;11.63;5.07;;;;;;;13.05;70.68;99644.81;4824099;29;103197;-93
2021/11/27 01:44:16;;;;;;;9.73;5.30;;;;;;;13.07;70.56;99650.78;4836078;29;101755;-93
2021/11/27 01:46:42;;;;;;;8.38;5.30;;;;;;;13.05;70.59;99644.81;4829383;29;101973;-94
2021/11/27 01:49:10;;;;;;;13.05;5.97;;;;;;;13.07;70.92;99644.53;4828908;29;102000;-94
2021/11/27 01:51:38;;;;;;;10.80;5.85;;;;;;;13.07;70.81;99639.06;4833692;29;102769;-94
2021/11/27 01:54:09;;;;;;;11.68;5.80;;;;;;;13.06;70.77;99646.44;4826435;29;102047;-93
2021/11/27 01:56:41;;;;;;;11.20;5.53;;;;;;;13.07;70.66;99630.88;4837979;29;102063;-93
2021/11/27 01:59:08;;;;;;;15.38;5.93;;;;;;;13.07;70.79;99639.06;4858702;29;102130;-94
2021/11/27 02:01:35;;;;;;;9.30;6.03;;;;;;;13.07;70.39;99637.13;4846015;29;102830;-93
2021/11/27 02:04:03;;;;;;;8.52;5.25;;;;;;;13.07;70.81;99622.66;4842620;29;102063;-94
2021/11/27 02:06:30;;;;;;;11.05;5.55;;;;;;;13.07;70.73;99623.47;4847200;29;102130;-93
2021/11/27 02:08:58;;;;;;;10.68;5.95;;;;;;;13.07;70.88;99620.75;4846262;29;102039;-93
2021/11/27 02:11:28;;;;;;;11.70;5.45;;;;;;;13.08;70.77;99633.28;4828477;29;102955;-93
2021/11/27 02:13:56;;;;;;;11.30;5.43;;;;;;;13.08;70.83;99633.28;4843762;29;101853;-93
2021/11/27 02:16:24;;;;;;;9.48;5.18;;;;;;;13.08;70.92;99635.19;4838594;29;101977;-92
2021/11/27 02:18:50;;;;;;;9.50;5.18;;;;;;;13.08;70.68;99636.00;4831121;29;102105;-94
2021/11/27 02:21:21;;;;;;;10.55;5.95;;;;;;;13.08;70.76;99636.00;4844673;29;102744;-92
2021/11/27 02:23:49;;;;;;;8.88;5.30;;;;;;;13.09;70.79;99628.59;4833287;29;102084;-93
2021/11/27 02:26:18;;;;;;;10.10;5.05;;;;;;;13.09;70.85;99632.16;4841029;29;101824;-93
2021/11/27 02:28:49;;;;;;;11.07;5.45;;;;;;;13.09;70.90;99623.97;4847881;29;102132;-93
2021/11/27 02:31:16;;;;;;;6.63;4.80;;;;;;;13.09;70.72;99632.16;4858498;29;103109;-93
2021/11/27 02:33:42;;;;;;;10.38;5.22;;;;;;;13.11;70.90;99640.03;4844963;29;102003;-93
2021/11/27 02:36:09;;;;;;;8.50;4.60;;;;;;;13.09;71.23;99625.88;4841544;29;102077;-93
2021/11/27 02:38:37;;;;;;;9.27;5.20;;;;;;;13.11;70.79;99623.66;4846265;29;102095;-93
2021/11/27 02:41:04;;;;;;;10.47;5.53;;;;;;;13.10;70.89;99622.84;4835888;29;102756;-93
2021/11/27 02:43:31;;;;;;;11.70;5.50;;;;;;;13.11;70.89;99621.72;4843668;29;102033;-89
2021/11/27 02:45:59;;;;;;;8.95;5.40;;;;;;;13.11;70.81;99612.72;4847403;29;102025;-88
2021/11/27 02:48:25;;;;;;;12.00;5.60;;;;;;;13.11;71.07;99618.97;4846667;29;102007;-88
2021/11/27 02:50:52;;;;;;;10.93;5.38;;;;;;;13.11;70.89;99610.78;4846134;29;102753;-88
2021/11/27 02:53:18;;;;;;;9.25;5.28;;;;;;;13.12;70.87;99609.66;4845777;29;101723;-88
2021/11/27 02:55:47;;;;;;;8.82;5.38;;;;;;;13.11;71.06;99602.59;4828861;29;101975;-88
2021/11/27 02:58:13;;;;;;;8.30;5.50;;;;;;;13.11;70.99;99602.59;4828800;29;102115;-88
2021/11/27 03:00:41;;;;;;;9.38;5.57;;;;;;;13.12;71.14;99604.19;4828060;29;102729;-88
2021/11/27 03:03:08;;;;;;;11.20;5.78;;;;;;;13.12;70.89;99603.41;4828069;29;102051;-88
2021/11/27 03:05:35;;;;;;;9.48;5.55;;;;;;;13.12;71.04;99606.13;4828690;29;101882;-88
2021/11/27 03:08:02;;;;;;;8.43;5.55;;;;;;;13.12;71.02;99609.66;4830051;29;102063;-88
2021/11/27 03:10:28;;;;;;;8.77;5.10;;;;;;;13.13;70.94;99611.28;4828312;29;102812;-88
2021/11/27 03:12:57;;;;;;;11.23;5.07;;;;;;;13.12;71.08;99603.41;4829288;29;101557;-87
2021/11/27 03:15:24;;;;;;;11.38;5.68;;;;;;;13.12;70.94;99604.19;4828662;29;102076;-88
2021/11/27 03:17:51;;;;;;;8.80;5.10;;;;;;;13.13;70.93;99615.97;4829718;29;102059;-88
2021/11/27 03:20:19;;;;;;;11.93;6.20;;;;;;;13.13;70.61;99605.84;4828424;29;102703;-88
2021/11/27 03:22:46;;;;;;;10.68;5.55;;;;;;;13.13;71.01;99603.09;4828467;29;101576;-88
2021/11/27 03:25:15;;;;;;;7.43;5.40;;;;;;;13.13;71.10;99611.28;4828068;29;101645;-88
2021/11/27 03:27:43;;;;;;;8.05;5.18;;;;;;;13.14;70.96;99606.63;4829524;29;102044;-88
2021/11/27 03:30:15;;;;;;;9.98;5.93;;;;;;;13.14;71.21;99607.44;4828129;29;102762;-88
2021/11/27 03:32:41;;;;;;;8.88;5.43;;;;;;;13.13;71.16;99605.84;4827003;29;102008;-93
2021/11/27 03:35:08;;;;;;;6.47;4.88;;;;;;;13.15;71.03;99610.97;4841456;29;101896;-93
2021/11/27 03:37:35;;;;;;;10.13;5.47;;;;;;;13.14;71.17;99607.44;4840811;29;102148;-93
2021/11/27 03:40:03;;;;;;;6.93;5.25;;;;;;;13.14;71.05;99618.34;4850173;29;102812;-93
2021/11/27 03:42:32;;;;;;;9.45;5.63;;;;;;;13.15;70.99;99614.50;4859558;29;102190;-93
2021/11/27 03:44:59;;;;;;;9.27;5.30;;;;;;;13.14;71.09;99612.91;4857926;29;102212;-93
2021/11/27 03:47:27;;;;;;;7.60;5.35;;;;;;;13.14;71.13;99612.91;4833497;29;102062;-93
2021/11/27 03:49:54;;;;;;;8.30;5.30;;;;;;;13.15;71.09;99609.03;4847355;29;102738;-93
2021/11/27 03:52:21;;;;;;;9.10;6.10;;;;;;;13.15;71.35;99603.56;4858133;29;102028;-93
2021/11/27 03:54:49;;;;;;;7.35;5.65;;;;;;;13.16;71.09;99609.84;4843727;29;102051;-93
2021/11/27 03:57:17;;;;;;;7.78;5.50;;;;;;;13.16;71.13;99609.84;4839474;29;102070;-93
2021/11/27 03:59:43;;;;;;;9.07;5.78;;;;;;;13.15;71.02;99606.31;4827386;29;102018;-93
2021/11/27 04:02:11;;;;;;;8.20;5.32;;;;;;;13.16;71.03;99620.75;4829298;29;102197;-92
2021/11/27 04:04:40;;;;;;;8.35;5.68;;;;;;;13.16;71.00;99618.88;4847978;29;102089;-94
2021/11/27 04:07:08;;;;;;;10.88;6.45;;;;;;;13.15;70.93;99625.44;4841203;29;102120;-93
2021/11/27 04:09:35;;;;;;;8.43;5.90;;;;;;;13.16;71.08;99621.59;4856720;29;102748;-93
2021/11/27 04:12:02;;;;;;;8.50;5.72;;;;;;;13.17;71.17;99622.41;4850018;29;101927;-93
2021/11/27 04:14:31;;;;;;;7.05;5.30;;;;;;;13.17;71.18;99627.88;4854832;29;102020;-93
2021/11/27 04:16:58;;;;;;;7.60;5.88;;;;;;;13.17;70.96;99627.88;4836319;29;102232;-93
2021/11/27 04:19:24;;;;;;;8.68;5.32;;;;;;;13.16;71.06;99631.69;4859728;29;102852;-93
2021/11/27 04:21:53;;;;;;;11.07;6.60;;;;;;;13.17;71.02;99639.59;4863115;29;102213;-92
2021/11/27 04:24:19;;;;;;;8.13;5.53;;;;;;;13.17;71.07;99634.13;4853701;29;102170;-93
2021/11/27 04:26:45;;;;;;;8.57;5.85;;;;;;;13.17;71.16;99636.84;4835431;29;102074;-94
2021/11/27 04:29:12;;;;;;;9.38;5.93;;;;;;;13.17;71.04;99631.41;4825309;29;102747;-93
2021/11/27 04:31:38;;;;;;;8.88;5.70;;;;;;;13.17;71.10;99627.88;4839605;29;101892;-93
2021/11/27 04:34:05;;;;;;;8.85;6.03;;;;;;;13.17;71.15;99628.66;4843328;29;102053;-93
2021/11/27 04:36:33;;;;;;;7.57;5.53;;;;;;;13.16;71.18;99627.06;4848855;29;101964;-93
2021/11/27 04:39:02;;;;;;;9.18;6.05;;;;;;;13.18;71.23;99624.00;4854822;29;102800;-93
2021/11/27 04:41:29;;;;;;;8.63;5.82;;;;;;;13.17;71.22;99636.84;4850175;29;102111;-93
2021/11/27 04:43:55;;;;;;;6.70;5.43;;;;;;;13.17;71.15;99636.84;4829454;29;102147;-93
2021/11/27 04:46:22;;;;;;;7.13;6.22;;;;;;;13.16;70.99;99637.16;4840257;29;102082;-92
2021/11/27 04:48:48;;;;;;;9.13;6.18;;;;;;;13.17;71.10;99633.31;4840416;29;102740;-93
2021/11/27 04:51:14;;;;;;;7.53;5.78;;;;;;;13.17;71.21;99631.41;4842226;29;102009;-93
2021/11/27 04:53:41;;;;;;;8.07;6.20;;;;;;;13.17;71.09;99639.59;4847759;29;103589;-93
2021/11/27 04:56:10;;;;;;;8.10;6.07;;;;;;;13.17;70.97;99645.06;4836021;29;102126;-92
2021/11/27 04:58:36;;;;;;;9.57;6.55;;;;;;;13.18;71.15;99646.66;4841837;29;102740;-93
2021/11/27 05:01:03;;;;;;;7.45;6.03;;;;;;;13.17;71.24;99645.06;4848228;29;102010;-93
2021/11/27 05:03:29;;;;;;;8.90;6.28;;;;;;;13.16;71.23;99638.00;4859221;29;102578;-92
2021/11/27 05:05:56;;;;;;;7.53;5.60;;;;;;;13.17;71.06;99634.13;4829061;29;102160;-93
2021/11/27 05:08:22;;;;;;;7.78;5.68;;;;;;;13.17;71.15;99634.13;4841666;29;102451;-93
2021/11/27 05:10:49;;;;;;;8.43;6.00;;;;;;;13.18;70.88;99637.66;4832051;29;102032;-93
2021/11/27 05:13:18;;;;;;;8.50;6.20;;;;;;;13.18;70.91;99640.38;4857068;29;102018;-93
2021/11/27 05:15:44;;;;;;;8.05;6.03;;;;;;;13.18;71.19;99641.19;4831670;29;102013;-93
2021/11/27 05:18:10;;;;;;;9.93;6.05;;;;;;;13.18;71.16;99645.84;4828798;29;102758;-93
2021/11/27 05:20:37;;;;;;;8.63;6.18;;;;;;;13.18;71.16;99656.78;4857179;29;102080;-93
2021/11/27 05:23:15;;;;;;;7.07;5.68;;;;;;;13.17;71.25;99658.72;4847280;29;101933;-93
2021/11/27 05:25:41;;;;;;;9.10;6.25;;;;;;;13.17;71.09;99664.19;4832628;29;102065;-91
2021/11/27 05:28:08;;;;;;;7.88;6.93;;;;;;;13.19;71.17;99666.59;4832520;29;102848;-92
2021/11/27 05:30:36;;;;;;;7.97;6.50;;;;;;;13.18;71.22;99668.50;4867229;29;102006;-91
2021/11/27 05:35:29;;;;;;;8.32;5.97;;;;;;;13.18;71.03;99681.38;4856231;29;102043;-91
2021/11/27 05:37:55;;;;;;;8.13;5.80;;;;;;;13.18;70.98;99682.16;4866003;29;102668;-92
2021/11/27 05:40:22;;;;;;;14.35;7.20;;;;;;;13.18;71.17;99684.09;4849881;29;102150;-90
2021/11/27 05:42:49;;;;;;;8.70;6.25;;;;;;;13.18;71.13;99693.09;4848727;29;102028;-90
2021/11/27 05:45:15;;;;;;;8.18;5.95;;;;;;;13.19;71.14;99688.44;4849752;29;102056;-90
2021/11/27 05:47:44;;;;;;;10.15;6.82;;;;;;;13.18;71.09;99690.38;4849653;29;102776;-90
2021/11/27 05:50:11;;;;;;;13.55;6.55;;;;;;;13.18;71.14;99690.38;4850598;29;101763;-90
2021/11/27 05:52:37;;;;;;;8.38;6.10;;;;;;;13.18;71.12;99695.84;4850863;29;101800;-90
2021/11/27 05:55:05;;;;;;;9.13;6.13;;;;;;;13.19;71.02;99694.72;4870923;29;102066;-90
2021/11/27 05:57:32;;;;;;;10.13;6.83;;;;;;;13.18;71.35;99695.84;4868310;29;102756;-90
2021/11/27 05:59:59;;;;;;;10.68;6.78;;;;;;;13.19;71.03;99699.38;4870398;29;101951;-90
2021/11/27 06:02:25;;;;;;;10.88;6.70;;;;;;;13.18;71.28;99705.97;4852082;29;102173;-90
2021/11/27 06:04:53;;;;;;;8.35;6.65;;;;;;;13.18;71.12;99712.22;4833442;29;102008;-90
2021/11/27 06:07:20;;;;;;;8.23;6.38;;;;;;;13.19;71.15;99718.50;4829836;29;102727;-90
2021/11/27 06:09:46;;;;;;;7.10;6.40;;;;;;;13.18;71.18;99717.69;4867738;29;101808;-91
2021/11/27 06:12:13;;;;;;;11.52;6.65;;;;;;;13.19;71.17;99724.75;4851608;29;102064;-92
2021/11/27 06:14:39;;;;;;;9.15;6.75;;;;;;;13.19;71.31;99730.22;4849779;29;102034;-88
2021/11/27 06:17:06;;;;;;;7.68;6.28;;;;;;;13.17;71.18;99724.28;4849805;29;103024;-88
2021/11/27 06:19:33;;;;;;;10.77;7.25;;;;;;;13.19;71.17;99738.41;4848430;29;102004;-87
2021/11/27 06:22:01;;;;;;;10.48;6.85;;;;;;;13.18;nan;99731.34;4847712;29;101845;-87
2021/11/27 06:24:28;;;;;;;7.25;6.18;;;;;;;13.19;71.38;99730.22;4846164;29;102183;-87
2021/11/27 06:26:55;;;;;;;9.25;7.18;;;;;;;13.19;70.93;99741.16;4866495;29;102777;-87
2021/11/27 06:29:21;;;;;;;9.45;7.07;;;;;;;13.19;71.17;99738.41;4867547;29;101627;-87
2021/11/27 06:31:48;;;;;;;8.82;6.65;;;;;;;13.19;71.39;99749.34;4849501;29;102107;-87
2021/11/27 06:34:17;;;;;;;9.43;6.80;;;;;;;13.21;71.22;99751.78;4867824;29;102079;-87
2021/11/27 06:36:43;;;;;;;8.98;6.40;;;;;;;13.20;71.12;99753.72;4848798;29;102825;-87
2021/11/27 06:39:11;;;;;;;8.57;6.85;;;;;;;13.20;71.27;99755.66;4849738;29;101616;-88
2021/11/27 06:41:38;;;;;;;8.82;6.88;;;;;;;13.21;71.37;99751.78;4835363;29;101713;-87
2021/11/27 06:44:06;;;;;;;9.18;7.18;;;;;;;13.21;71.13;99751.78;4849652;29;101749;-87
2021/11/27 06:46:32;;;;;;;9.43;6.40;;;;;;;13.21;71.52;99755.31;4831314;29;102731;-87
2021/11/27 06:48:58;;;;;;;9.30;6.60;;;;;;;13.22;71.15;99750.66;4829304;29;102129;-87
2021/11/27 06:51:25;;;;;;;8.77;6.78;;;;;;;13.23;71.32;99749.53;4828982;29;101994;-87
2021/11/27 06:53:51;;;;;;;10.68;7.43;;;;;;;13.22;71.22;99740.53;4830610;29;102154;-87
2021/11/27 06:56:20;;;;;;;7.90;6.32;;;;;;;13.22;71.31;99726.88;4810753;29;102938;-87
2021/11/27 06:58:46;;;;;;;8.67;6.90;;;;;;;13.23;71.36;99730.41;4812442;29;101772;-87
2021/11/27 07:01:13;;;;;;;10.45;6.70;;;;;;;13.23;71.25;99735.88;4828926;29;101718;-87
2021/11/27 07:03:40;;;;;;;9.63;6.82;;;;;;;13.25;71.34;99732.88;4829953;29;101968;-87
2021/11/27 07:06:06;;;;;;;10.70;7.20;;;;;;;13.25;71.44;99732.88;4811497;29;102532;-87
2021/11/27 07:08:36;;;;;;;8.80;7.40;;;;;;;13.24;71.25;99737.53;4837311;29;102141;-87
2021/11/27 07:11:02;;;;;;;9.20;7.35;;;;;;;13.26;71.37;99732.53;4846984;29;102032;-87
2021/11/27 07:13:31;;;;;;;8.10;6.53;;;;;;;13.26;71.48;99723.53;4831799;29;102089;-87
2021/11/27 07:15:58;;;;;;;9.68;7.57;;;;;;;13.27;71.41;99738.81;4847153;29;102792;-87
2021/11/27 07:18:25;;;;;;;7.45;6.65;;;;;;;13.26;71.77;99737.22;4847746;29;101679;-87
2021/11/27 07:20:52;;;;;;;8.65;7.43;;;;;;;13.27;71.29;99738.81;4846821;29;101784;-87
2021/11/27 07:23:18;;;;;;;8.65;7.30;;;;;;;13.28;71.20;99729.50;4848656;29;101954;-88
2021/11/27 07:25:46;;;;;;;8.63;6.93;;;;;;;13.26;71.46;99727.06;4830324;29;102752;-87
2021/11/27 07:28:13;;;;;;;8.23;7.10;;;;;;;13.28;71.25;99737.72;4847603;29;101699;-88
2021/11/27 07:30:43;;;;;;;11.13;7.38;;;;;;;13.28;71.20;99737.72;4845554;29;102103;-87
2021/11/27 07:33:09;;;;;;;10.05;7.40;;;;;;;13.27;71.31;99736.91;4833220;29;102027;-87
2021/11/27 07:35:36;;;;;;;10.60;7.35;;;;;;;13.28;71.51;99726.78;4832715;29;102945;-88
2021/11/27 07:38:03;;;;;;;10.27;7.40;;;;;;;13.28;nan;99727.59;4834102;29;101949;-87
2021/11/27 07:40:30;;;;;;;8.35;6.70;;;;;;;13.28;71.63;99727.59;4838947;29;102108;-87
2021/11/27 07:42:58;;;;;;;8.80;7.85;;;;;;;13.29;71.45;99721.00;4851308;29;102318;-93
2021/11/27 07:45:24;;;;;;;8.85;7.40;;;;;;;13.29;71.33;99718.25;4848096;29;103251;-92
2021/11/27 07:47:53;;;;;;;9.10;6.93;;;;;;;13.30;71.46;99740.91;4848281;29;101804;-92
2021/11/27 07:50:19;;;;;;;9.35;7.55;;;;;;;13.30;71.30;99740.91;4844893;29;102181;-92
2021/11/27 07:52:48;;;;;;;11.57;7.55;;;;;;;13.29;71.44;99734.66;4845443;29;102125;-92
2021/11/27 07:55:15;;;;;;;9.15;7.65;;;;;;;13.30;71.21;99740.91;4828602;29;102390;-93
2021/11/27 07:57:41;;;;;;;8.55;7.07;;;;;;;13.31;71.21;99739.81;4855016;29;102253;-92
2021/11/27 08:00:09;;;;;;;8.63;7.25;;;;;;;13.30;71.36;99739.00;4846551;29;102040;-92
2021/11/27 08:02:36;;;;;;;12.90;7.53;;;;;;;13.31;71.44;99739.81;4848281;29;102122;-92
2021/11/27 08:05:06;;;;;;;9.95;7.90;;;;;;;13.31;71.28;99735.16;4842411;29;102732;-92
2021/11/27 08:07:35;;;;;;;10.98;7.90;;;;;;;13.32;71.28;99741.44;4830924;29;102112;-92
2021/11/27 08:10:05;;;;;;;8.45;6.50;;;;;;;13.32;71.19;99739.50;4845529;29;101997;-93
2021/11/27 08:12:33;;;;;;;13.00;7.65;;;;;;;13.32;71.46;99744.16;4845971;29;102060;-92
2021/11/27 08:15:06;;;;;;;11.07;7.45;;;;;;;13.33;71.27;99741.09;4844519;29;102766;-92
2021/11/27 08:17:35;;;;;;;10.32;7.50;;;;;;;13.32;71.29;99744.97;4852580;29;102095;-92
2021/11/27 08:20:03;;;;;;;11.73;7.40;;;;;;;13.34;71.34;99744.63;4842713;29;102088;-92
2021/11/27 08:22:30;;;;;;;8.48;6.93;;;;;;;13.34;71.36;99744.63;4847420;29;102041;-92
2021/11/27 08:24:59;;;;;;;8.73;6.65;;;;;;;13.35;71.28;99749.00;4838053;29;102968;-92
2021/11/27 08:27:27;;;;;;;8.55;6.72;;;;;;;13.34;71.25;99750.94;4842686;29;102286;-92
2021/11/27 08:29:54;;;;;;;9.50;7.13;;;;;;;13.34;71.36;99753.66;4846002;29;102150;-92
2021/11/27 08:32:21;;;;;;;7.75;6.43;;;;;;;13.35;71.42;99754.47;4852510;29;102176;-89
2021/11/27 08:34:48;;;;;;;8.50;7.15;;;;;;;13.36;71.24;99742.41;4852430;29;102808;-92
2021/11/27 08:37:15;;;;;;;12.55;6.85;;;;;;;13.36;nan;99745.13;4837072;29;101943;-92
2021/11/27 08:39:43;;;;;;;7.40;6.38;;;;;;;13.37;71.27;99757.69;4846526;29;101818;-91
2021/11/27 08:42:10;;;;;;;10.40;6.93;;;;;;;13.37;71.37;99752.22;4843862;29;102089;-92
2021/11/27 08:44:37;;;;;;;7.63;6.80;;;;;;;13.38;71.44;99753.81;4852345;29;102731;-92
2021/11/27 08:47:03;;;;;;;9.75;7.25;;;;;;;13.38;71.46;99753.81;4848209;29;101990;-92
2021/11/27 08:49:32;;;;;;;10.13;6.95;;;;;;;13.39;71.44;99755.44;4849306;29;102045;-90
2021/11/27 08:51:58;;;;;;;8.18;6.70;;;;;;;13.39;71.44;99761.72;4833239;29;102079;-92
2021/11/27 08:54:24;;;;;;;8.80;7.03;;;;;;;13.41;71.84;99753.19;4848429;29;102827;-92
2021/11/27 08:56:52;;;;;;;8.13;6.70;;;;;;;13.41;71.37;99753.19;4863489;29;101732;-92
2021/11/27 08:59:19;;;;;;;8.20;6.97;;;;;;;13.42;71.34;99754.81;4859269;29;101813;-92
2021/11/27 09:01:46;;;;;;;7.10;6.40;;;;;;;13.43;71.41;99756.44;4850110;29;102094;-92
2021/11/27 09:04:12;;;;;;;7.82;6.55;;;;;;;13.43;71.50;99746.31;4832135;29;102717;-92
2021/11/27 09:06:39;;;;;;;7.45;6.15;;;;;;;13.43;71.29;99734.56;4847295;29;102030;-93
2021/11/27 09:09:06;;;;;;;8.27;7.05;;;;;;;13.44;71.31;99736.19;4813370;29;102030;-94
2021/11/27 09:11:33;;;;;;;7.63;6.72;;;;;;;13.45;71.11;99737.78;4812369;29;102172;-92
2021/11/27 09:14:01;;;;;;;10.27;7.05;;;;;;;13.45;71.29;99727.69;4849847;29;102826;-93
2021/11/27 09:16:28;;;;;;;9.48;6.40;;;;;;;13.46;71.31;99744.88;4851886;29;101864;-91
2021/11/27 09:18:55;;;;;;;8.05;6.32;;;;;;;13.48;71.18;99741.81;4862291;29;102183;-90
2021/11/27 09:21:21;;;;;;;18.10;8.43;;;;;;;13.45;71.54;99741.34;4836087;29;102121;-89
2021/11/27 09:23:50;;;;;;;13.00;7.85;;;;;;;13.45;71.58;99744.06;4827562;29;103122;-94
2021/11/27 09:26:17;;;;;;;12.57;8.00;;;;;;;13.47;71.23;99754.69;4833727;29;102081;-93
2021/11/27 09:28:44;;;;;;;9.18;6.68;;;;;;;13.46;71.31;99748.41;4861689;29;101929;-92
2021/11/27 09:31:12;;;;;;;10.07;6.55;;;;;;;13.48;71.30;99747.28;4840275;29;102313;-93
2021/11/27 09:33:39;;;;;;;15.57;7.25;;;;;;;13.46;71.36;99733.94;4844494;29;102466;-93
2021/11/27 09:36:08;;;;;;;12.27;7.13;;;;;;;13.46;71.09;99734.75;4821626;29;102004;-93
2021/11/27 09:38:35;;;;;;;9.35;6.63;;;;;;;13.47;71.17;99735.56;4846371;29;102113;-93
2021/11/27 09:41:18;;;;;;;8.63;6.65;;;;;;;13.48;71.20;99739.88;4832520;29;102246;-91
2021/11/27 09:43:49;;;;;;;8.65;6.65;;;;;;;13.49;71.34;99738.78;4840782;29;102734;-93
2021/11/27 09:46:20;;;;;;;8.27;6.57;;;;;;;13.49;71.26;99735.22;4816733;29;102174;-93
2021/11/27 09:48:51;;;;;;;10.27;6.10;;;;;;;13.48;70.90;99731.69;4805714;29;102287;-93
2021/11/27 09:51:18;;;;;;;9.70;7.07;;;;;;;13.50;71.25;99736.84;4840442;29;101902;-93
2021/11/27 09:53:45;;;;;;;15.23;6.75;;;;;;;13.50;71.20;99729.47;4816379;29;102754;-92
2021/11/27 09:56:12;;;;;;;10.70;6.65;;;;;;;13.50;71.11;99723.19;4835541;29;101995;-93
2021/11/27 09:58:39;;;;;;;7.13;5.60;;;;;;;13.49;70.98;99722.38;4812856;29;102009;-92
2021/11/27 10:01:06;;;;;;;7.25;6.15;;;;;;;13.50;70.96;99724.00;4829707;29;102138;-92
2021/11/27 10:03:39;;;;;;;7.38;5.63;;;;;;;13.50;71.25;99718.53;4839606;29;102504;-93
2021/11/27 10:06:06;;;;;;;9.10;5.82;;;;;;;13.51;71.10;99720.13;4801134;29;102238;-92
2021/11/27 10:08:34;;;;;;;9.27;6.10;;;;;;;13.51;71.07;99725.59;4822101;29;102128;-92
2021/11/27 10:11:01;;;;;;;9.13;5.78;;;;;;;13.50;71.19;99718.53;4830366;29;102045;-93
2021/11/27 10:13:28;;;;;;;6.50;5.80;;;;;;;13.51;71.15;99725.59;4816850;29;102815;-92
2021/11/27 10:15:55;;;;;;;9.20;5.78;;;;;;;13.51;71.12;99725.59;4828552;29;102122;-93
2021/11/27 10:18:24;;;;;;;7.65;5.97;;;;;;;13.51;71.43;99731.06;4808875;29;102137;-92
2021/11/27 10:21:13;;;;;;;6.30;5.00;;;;;;;13.51;70.64;99735.72;4817931;29;102144;-92
2021/11/27 10:23:39;;;;;;;;;;;;;;;13.51;70.93;99742.00;4826606;29;102763;-93
2021/11/27 10:26:06;;;;;;;7.63;5.53;;;;;;;13.50;70.92;99745.84;4811479;29;102207;-93
2021/11/27 10:28:34;;;;;;;6.90;5.57;;;;;;;13.51;71.27;99747.47;4807927;29;102174;-92
2021/11/27 10:31:05;;;;;;;9.20;5.97;;;;;;;13.51;70.94;99742.00;4832857;29;102140;-92
2021/11/27 10:33:38;;;;;;;7.50;5.70;;;;;;;13.51;71.03;99744.72;4838173;29;102750;-89
2021/11/27 10:36:09;;;;;;;8.05;6.13;;;;;;;13.51;71.12;99724.78;4830238;29;102074;-92
2021/11/27 10:38:41;;;;;;;7.32;6.10;;;;;;;13.51;71.05;99719.31;4811114;29;102252;-87
2021/11/27 10:41:09;;;;;;;6.38;5.70;;;;;;;13.51;71.22;99714.66;4839505;29;102276;-89
2021/11/27 10:43:35;;;;;;;6.30;5.70;;;;;;;13.52;70.93;99708.06;4847277;29;102741;-90
2021/11/27 10:46:02;;;;;;;7.60;5.20;;;;;;;13.50;71.04;99704.84;4848259;29;102064;-89
2021/11/27 10:48:39;;;;;;;;;;;;;;;13.50;71.11;99702.13;4847637;29;103187;-89
2021/11/27 10:51:07;;;;;;;6.72;5.70;;;;;;;13.52;70.98;99715.47;4849124;29;102068;-89
2021/11/27 10:53:37;;;;;;;6.75;5.70;;;;;;;13.52;71.03;99710.00;4847027;29;106669;-89
2021/11/27 10:56:05;;;;;;;5.80;5.27;;;;;;;13.51;70.93;99709.19;4848239;29;101627;-89
2021/11/27 10:58:31;;;;;;;7.70;5.45;;;;;;;13.51;71.02;99714.66;4847647;29;101780;-89
2021/11/27 11:00:59;;;;;;;6.70;5.35;;;;;;;13.50;71.09;99704.84;4848925;29;102020;-89
2021/11/27 11:03:28;;;;;;;5.57;4.95;;;;;;;13.51;70.99;99702.94;4846996;29;102703;-89
2021/11/27 11:06:00;;;;;;;7.00;5.45;;;;;;;13.51;71.07;99697.47;4845554;29;101843;-89
2021/11/27 11:08:32;;;;;;;5.50;5.00;;;;;;;13.50;70.93;99691.19;4844880;29;101554;-89
2021/11/27 11:11:01;;;;;;;5.88;4.93;;;;;;;13.51;71.48;99700.19;4848341;29;102000;-89
2021/11/27 11:13:32;;;;;;;6.50;5.00;;;;;;;13.50;70.98;99688.47;4846163;29;102718;-89
2021/11/27 11:16:08;;;;;;;5.63;4.97;;;;;;;13.51;70.96;99695.53;4847685;29;101671;-89
2021/11/27 11:18:51;;;;;;;7.03;4.97;;;;;;;13.50;70.98;99702.13;4846956;29;101929;-89
2021/11/27 11:21:19;;;;;;;6.53;5.07;;;;;;;13.50;71.08;99710.31;4847249;29;101657;-89
2021/11/27 11:23:47;;;;;;;8.07;5.47;;;;;;;13.50;70.83;99702.13;4847010;29;102780;-89
2021/11/27 11:26:14;;;;;;;6.88;5.00;;;;;;;13.50;70.90;99701.31;4830721;29;101980;-89
2021/11/27 11:28:47;;;;;;;4.95;4.10;;;;;;;13.48;70.87;99685.22;4847226;29;101779;-89